Time;durP1;ratioP1;P1;durP2;ratioP2;P2;SDS_P1;SDS_P2;PMS_P1;PMS_P2;Temp;Humidity;BMP_temperature;BMP_pressure;BME280_temperature;BME280_humidity;BME280_pressure;Samples;Min_cycle;Max_cycle;Signal;HPM_P1;HPM_P2
2021/05/30 00:01:09;;;;;;;5.63;4.17;;;13.00;91.30;;;;;;5067833;28;20483;-47
2021/05/30 00:03:35;;;;;;;5.53;3.73;;;13.00;91.50;;;;;;5069458;28;20924;-48
2021/05/30 00:06:02;;;;;;;5.43;4.27;;;12.60;91.80;;;;;;5069377;28;20436;-48
2021/05/30 00:08:28;;;;;;;5.73;3.70;;;13.10;92.30;;;;;;5069215;28;20726;-48
2021/05/30 00:10:56;;;;;;;5.37;4.80;;;12.50;92.30;;;;;;5069155;28;20466;-47
2021/05/30 00:13:22;;;;;;;4.50;4.10;;;12.50;92.30;;;;;;5069157;28;20434;-48
2021/05/30 00:15:48;;;;;;;5.73;4.00;;;12.00;92.50;;;;;;5069114;28;20784;-48
2021/05/30 00:18:15;;;;;;;6.30;3.90;;;12.30;92.80;;;;;;5068774;28;20445;-47
2021/05/30 00:20:41;;;;;;;5.83;4.07;;;12.50;92.90;;;;;;5068989;28;20485;-47
2021/05/30 00:23:07;;;;;;;5.37;4.03;;;12.30;93.10;;;;;;5069225;28;20433;-47
2021/05/30 00:25:34;;;;;;;4.90;4.40;;;12.30;93.20;;;;;;5069222;28;20440;-47
2021/05/30 00:28:01;;;;;;;5.37;4.50;;;11.70;93.20;;;;;;5072078;28;20429;-48
2021/05/30 00:30:27;;;;;;;4.40;3.50;;;12.20;93.60;;;;;;5071171;28;20442;-48
2021/05/30 00:32:53;;;;;;;6.80;4.07;;;11.80;93.70;;;;;;5072657;28;20427;-47
2021/05/30 00:35:19;;;;;;;6.23;5.00;;;12.10;94.00;;;;;;5073084;28;20447;-48
2021/05/30 00:37:46;;;;;;;5.47;4.97;;;12.20;94.30;;;;;;5073139;28;20880;-47
2021/05/30 00:40:12;;;;;;;5.57;4.20;;;12.10;94.40;;;;;;5072608;28;20810;-47
2021/05/30 00:42:39;;;;;;;5.00;4.50;;;12.00;94.70;;;;;;5072821;28;20446;-48
2021/05/30 00:45:07;;;;;;;5.20;4.57;;;12.10;95.10;;;;;;5072907;28;20437;-48
2021/05/30 00:47:33;;;;;;;7.27;4.60;;;11.90;95.10;;;;;;5072841;28;20457;-47
2021/05/30 00:50:00;;;;;;;5.80;4.27;;;12.30;95.80;;;;;;5072675;28;20508;-48
2021/05/30 00:52:26;;;;;;;7.13;4.97;;;12.10;96.00;;;;;;5072773;28;20459;-48
2021/05/30 00:54:52;;;;;;;8.00;5.37;;;11.70;96.00;;;;;;5072901;28;20440;-47
2021/05/30 00:57:18;;;;;;;5.80;5.20;;;12.10;96.60;;;;;;5072858;28;20930;-47
2021/05/30 00:59:45;;;;;;;6.13;5.50;;;11.90;97.00;;;;;;5072606;28;20781;-47
2021/05/30 01:02:12;;;;;;;19.30;6.93;;;12.00;97.30;;;;;;5072592;28;20470;-47
2021/05/30 01:04:39;;;;;;;6.47;5.40;;;12.30;97.50;;;;;;5072948;28;20449;-48
2021/05/30 01:07:05;;;;;;;5.33;4.80;;;11.90;97.50;;;;;;5072654;28;20906;-47
2021/05/30 01:09:33;;;;;;;5.90;5.20;;;11.90;97.80;;;;;;5070835;28;20518;-48
2021/05/30 01:12:02;;;;;;;7.17;5.33;;;11.80;98.00;;;;;;5072643;28;20483;-47
2021/05/30 01:14:28;;;;;;;7.77;5.50;;;11.80;98.20;;;;;;5072469;28;20502;-47
2021/05/30 01:16:56;;;;;;;6.70;5.30;;;12.20;98.50;;;;;;5072391;28;20447;-48
2021/05/30 01:19:27;;;;;;;9.50;5.90;;;12.00;98.90;;;;;;5072329;28;20442;-48
2021/05/30 01:21:58;;;;;;;6.97;6.27;;;11.10;98.50;;;;;;5072328;28;20478;-48
2021/05/30 01:24:25;;;;;;;5.73;5.17;;;11.60;98.80;;;;;;5072499;28;20899;-49
2021/05/30 01:26:51;;;;;;;6.53;5.20;;;11.50;99.00;;;;;;5072719;28;20972;-49
2021/05/30 01:29:17;;;;;;;8.77;5.50;;;11.50;99.20;;;;;;5071688;28;20472;-48
2021/05/30 01:31:44;;;;;;;7.47;5.40;;;11.80;99.50;;;;;;5071892;28;20961;-48
2021/05/30 01:34:10;;;;;;;6.50;5.43;;;10.90;99.10;;;;;;5072015;28;20429;-48
2021/05/30 01:36:36;;;;;;;9.67;5.57;;;11.40;99.30;;;;;;5072059;28;20812;-48
2021/05/30 01:39:02;;;;;;;6.10;5.10;;;11.30;99.50;;;;;;5071431;28;20442;-48
2021/05/30 01:41:29;;;;;;;7.80;5.73;;;11.50;99.60;;;;;;5071590;28;20456;-48
2021/05/30 01:43:55;;;;;;;10.47;6.30;;;11.50;99.80;;;;;;5071842;28;20433;-48
2021/05/30 01:46:22;;;;;;;12.63;5.53;;;11.20;99.70;;;;;;5072091;28;20430;-48
2021/05/30 01:48:48;;;;;;;8.97;5.73;;;11.10;99.60;;;;;;5071490;28;20429;-48
2021/05/30 01:51:14;;;;;;;6.80;5.27;;;11.30;99.70;;;;;;5071733;28;20985;-48
2021/05/30 01:53:47;;;;;;;7.63;5.17;;;11.40;99.70;;;;;;5072609;28;20449;-49
2021/05/30 01:58:58;;;;;;;5.20;4.70;;;10.60;99.30;;;;;;5071682;28;20509;-49
2021/05/30 02:01:25;;;;;;;7.17;5.97;;;11.50;99.90;;;;;;5071867;28;20588;-49
2021/05/30 02:03:51;;;;;;;8.97;5.30;;;11.40;99.90;;;;;;5071983;28;20514;-48
2021/05/30 02:06:18;;;;;;;5.97;4.60;;;11.20;99.90;;;;;;5071709;28;20440;-49
2021/05/30 02:08:47;;;;;;;5.93;5.20;;;11.10;99.60;;;;;;5071156;28;20988;-48
2021/05/30 02:11:13;;;;;;;5.20;4.50;;;11.60;99.90;;;;;;5071512;28;20625;-49
2021/05/30 02:13:40;;;;;;;5.00;4.50;;;10.90;99.50;;;;;;5071390;28;20436;-49
2021/05/30 02:16:07;;;;;;;7.37;5.10;;;11.00;99.40;;;;;;5071124;28;20472;-49
2021/05/30 02:18:34;;;;;;;9.10;4.83;;;11.00;99.30;;;;;;5071253;28;20430;-49
2021/05/30 02:21:00;;;;;;;8.93;5.53;;;10.90;99.40;;;;;;5070863;28;20487;-48
2021/05/30 02:23:26;;;;;;;7.10;5.53;;;11.20;99.50;;;;;;5070956;28;20425;-49
2021/05/30 02:25:53;;;;;;;5.73;5.13;;;11.00;99.50;;;;;;5071148;28;20430;-49
2021/05/30 02:28:19;;;;;;;7.13;5.17;;;11.00;99.50;;;;;;5070427;28;20624;-48
2021/05/30 02:30:45;;;;;;;7.57;5.30;;;10.60;99.10;;;;;;5070822;28;20450;-48
2021/05/30 02:33:12;;;;;;;9.47;5.20;;;10.70;99.50;;;;;;5071050;28;20437;-49
2021/05/30 02:35:38;;;;;;;7.63;5.27;;;11.10;99.60;;;;;;5070893;28;20456;-49
2021/05/30 02:38:04;;;;;;;5.50;5.00;;;11.20;99.70;;;;;;5070584;28;20436;-48
2021/05/30 02:40:31;;;;;;;7.43;5.43;;;10.80;99.50;;;;;;5070516;28;20484;-48
2021/05/30 02:42:58;;;;;;;7.63;5.07;;;10.70;99.30;;;;;;5070794;28;20561;-49
2021/05/30 02:45:24;;;;;;;7.57;5.13;;;11.00;99.60;;;;;;5070863;28;20437;-49
2021/05/30 02:47:51;;;;;;;5.10;4.60;;;10.80;99.60;;;;;;5070461;28;20452;-49
2021/05/30 02:50:18;;;;;;;7.93;5.37;;;10.80;99.50;;;;;;5069632;28;20429;-49
2021/05/30 02:52:44;;;;;;;4.60;4.20;;;10.60;99.40;;;;;;5070399;28;20592;-48
2021/05/30 02:55:11;;;;;;;7.40;5.03;;;11.20;99.80;;;;;;5070433;28;20430;-48
2021/05/30 02:57:37;;;;;;;7.13;5.67;;;10.60;99.40;;;;;;5069953;28;20430;-48
2021/05/30 03:00:05;;;;;;;5.50;4.87;;;10.60;99.50;;;;;;5068806;28;20472;-48
2021/05/30 03:02:31;;;;;;;5.73;5.20;;;10.70;99.50;;;;;;5069924;28;20453;-48
2021/05/30 03:04:58;;;;;;;5.90;5.13;;;10.70;99.30;;;;;;5070325;28;20537;-48
2021/05/30 03:07:25;;;;;;;4.93;4.43;;;10.80;99.50;;;;;;5070241;28;20872;-48
2021/05/30 03:09:52;;;;;;;8.30;5.17;;;10.90;99.50;;;;;;5068570;28;20942;-48
2021/05/30 03:12:18;;;;;;;5.90;4.67;;;10.80;99.20;;;;;;5070294;28;20546;-48
2021/05/30 03:14:44;;;;;;;6.60;4.57;;;10.50;99.20;;;;;;5070053;28;20438;-48
2021/05/30 03:17:10;;;;;;;7.50;5.20;;;10.40;99.10;;;;;;5070381;28;20434;-48
2021/05/30 03:19:37;;;;;;;7.17;5.30;;;11.00;99.40;;;;;;5069899;28;20938;-49
2021/05/30 03:22:04;;;;;;;7.43;5.60;;;10.50;99.10;;;;;;5070211;28;20569;-48
2021/05/30 03:24:31;;;;;;;7.90;4.70;;;10.10;98.90;;;;;;5070409;28;20422;-48
2021/05/30 03:26:58;;;;;;;8.30;4.93;;;11.00;99.20;;;;;;5070428;28;20453;-48
2021/05/30 03:29:24;;;;;;;4.80;4.23;;;10.40;98.90;;;;;;5070128;28;20529;-49
2021/05/30 03:31:50;;;;;;;8.43;4.67;;;10.50;98.70;;;;;;5070080;28;20547;-49
2021/05/30 03:34:16;;;;;;;6.93;4.30;;;10.70;98.60;;;;;;5070624;28;20425;-50
2021/05/30 03:36:44;;;;;;;10.40;4.83;;;10.60;98.50;;;;;;5070055;28;20434;-48
2021/05/30 03:39:10;;;;;;;5.93;4.53;;;10.60;98.70;;;;;;5069722;28;20478;-49
2021/05/30 03:41:40;;;;;;;6.43;5.07;;;10.90;98.80;;;;;;5070245;28;20525;-49
2021/05/30 03:44:08;;;;;;;4.30;3.90;;;10.60;98.60;;;;;;5069807;28;20938;-50
2021/05/30 03:46:34;;;;;;;7.27;5.20;;;10.80;98.60;;;;;;5069889;28;20807;-49
2021/05/30 03:49:01;;;;;;;6.73;4.50;;;11.10;98.60;;;;;;5068082;28;20476;-48
2021/05/30 03:51:27;;;;;;;6.70;3.90;;;11.00;98.30;;;;;;5070187;28;20458;-49
2021/05/30 03:53:53;;;;;;;6.33;4.30;;;11.10;98.10;;;;;;5070282;28;20941;-49
2021/05/30 03:56:20;;;;;;;7.23;3.90;;;10.80;97.90;;;;;;5068718;28;20541;-49
2021/05/30 03:58:47;;;;;;;5.23;4.10;;;10.30;97.40;;;;;;5069846;28;20903;-48
2021/05/30 04:01:13;;;;;;;5.90;4.03;;;10.60;97.30;;;;;;5070134;28;20485;-48
2021/05/30 04:03:39;;;;;;;5.63;4.23;;;10.90;97.20;;;;;;5073111;28;20967;-49
2021/05/30 04:06:05;;;;;;;5.07;3.80;;;11.30;97.20;;;;;;5073823;28;20433;-49
2021/05/30 04:08:31;;;;;;;5.73;4.40;;;11.20;96.80;;;;;;5073709;28;20879;-48
2021/05/30 04:10:57;;;;;;;5.73;4.40;;;11.30;96.80;;;;;;5073775;28;20453;-49
2021/05/30 04:13:23;;;;;;;5.40;4.57;;;11.80;96.60;;;;;;5073831;28;20533;-48
2021/05/30 04:15:50;;;;;;;7.00;3.90;;;11.10;96.10;;;;;;5073710;28;20879;-48
2021/05/30 04:18:20;;;;;;;6.47;4.30;;;11.70;96.10;;;;;;5072984;28;20438;-49
2021/05/30 04:20:46;;;;;;;14.47;4.03;;;12.20;96.30;;;;;;5073278;28;20500;-48
2021/05/30 04:23:12;;;;;;;4.20;3.77;;;11.90;95.80;;;;;;5073786;28;20807;-49
2021/05/30 04:25:41;;;;;;;4.20;3.80;;;11.90;95.80;;;;;;5073166;28;21038;-49
2021/05/30 04:28:07;;;;;;;4.77;4.10;;;12.00;95.40;;;;;;5073060;28;20879;-49
2021/05/30 04:30:33;;;;;;;4.83;4.03;;;12.40;95.10;;;;;;5073295;28;20444;-49
2021/05/30 04:33:00;;;;;;;4.93;3.87;;;12.20;94.80;;;;;;5073638;28;20934;-49
2021/05/30 04:35:26;;;;;;;7.20;3.83;;;12.40;94.80;;;;;;5073465;28;20933;-48
2021/05/30 04:37:52;;;;;;;5.10;3.73;;;12.20;94.30;;;;;;5073696;28;20438;-48
2021/05/30 04:40:20;;;;;;;6.20;4.07;;;11.90;94.40;;;;;;5072512;28;20462;-49
2021/05/30 04:42:46;;;;;;;8.90;3.73;;;13.00;94.60;;;;;;5073247;28;20505;-49
2021/05/30 04:45:14;;;;;;;5.93;3.93;;;12.60;94.30;;;;;;5073151;28;20563;-49
2021/05/30 04:47:40;;;;;;;3.90;3.43;;;12.60;94.40;;;;;;5073272;28;20433;-49
2021/05/30 04:50:08;;;;;;;5.57;3.70;;;12.90;94.40;;;;;;5072556;28;20488;-49
2021/05/30 04:52:34;;;;;;;5.17;3.43;;;12.60;94.10;;;;;;5072560;28;20976;-49
2021/05/30 04:55:00;;;;;;;4.40;3.43;;;13.00;94.00;;;;;;5072759;28;20444;-49
2021/05/30 04:57:26;;;;;;;5.90;3.23;;;12.90;93.50;;;;;;5072708;28;20430;-48
2021/05/30 04:59:52;;;;;;;3.40;3.00;;;13.40;94.00;;;;;;5072207;28;20437;-49
2021/05/30 05:02:19;;;;;;;3.80;3.40;;;13.10;93.50;;;;;;5072693;28;20932;-49
2021/05/30 05:04:45;;;;;;;4.90;3.30;;;12.90;93.30;;;;;;5072770;28;20441;-48
2021/05/30 05:07:12;;;;;;;4.13;3.40;;;13.10;93.30;;;;;;5072597;28;20491;-49
2021/05/30 05:09:38;;;;;;;6.67;3.30;;;12.60;93.10;;;;;;5071919;28;20525;-49
2021/05/30 05:12:05;;;;;;;4.57;2.97;;;13.30;93.20;;;;;;5071668;28;20467;-49
2021/05/30 05:14:31;;;;;;;4.67;3.37;;;13.60;93.30;;;;;;5072330;28;20434;-49
2021/05/30 05:16:57;;;;;;;4.17;3.10;;;13.50;93.10;;;;;;5072015;28;20932;-49
2021/05/30 05:19:23;;;;;;;3.80;3.40;;;13.80;92.80;;;;;;5071953;28;20447;-49
2021/05/30 05:21:49;;;;;;;3.20;2.90;;;13.70;92.50;;;;;;5072733;28;20494;-49
2021/05/30 05:24:16;;;;;;;4.23;3.00;;;13.10;92.00;;;;;;5072456;28;20440;-49
2021/05/30 05:26:42;;;;;;;5.13;3.03;;;13.70;92.10;;;;;;5072344;28;20543;-49
2021/05/30 05:29:09;;;;;;;5.10;3.80;;;13.90;92.30;;;;;;5072015;28;20445;-49
2021/05/30 05:31:35;;;;;;;4.13;3.30;;;13.60;91.60;;;;;;5072355;28;20451;-48
2021/05/30 05:34:01;;;;;;;8.00;3.40;;;14.00;91.70;;;;;;5071995;28;20436;-49
2021/05/30 05:36:27;;;;;;;3.90;3.03;;;13.90;91.70;;;;;;5072241;28;20483;-49
2021/05/30 05:38:53;;;;;;;6.03;3.23;;;14.00;91.90;;;;;;5072178;28;20492;-49
2021/05/30 05:41:20;;;;;;;3.30;2.80;;;14.00;91.50;;;;;;5071699;28;20563;-49
2021/05/30 05:43:46;;;;;;;4.93;3.97;;;14.40;91.30;;;;;;5071972;28;20531;-49
2021/05/30 05:46:12;;;;;;;5.10;3.13;;;14.50;91.20;;;;;;5072146;28;20436;-49
2021/05/30 05:48:39;;;;;;;3.47;2.73;;;14.30;90.50;;;;;;5071520;28;20925;-48
2021/05/30 05:51:05;;;;;;;3.53;2.80;;;14.40;90.80;;;;;;5071719;28;20539;-49
2021/05/30 05:53:31;;;;;;;3.47;3.20;;;14.40;90.50;;;;;;5071536;28;20488;-48
2021/05/30 05:55:57;;;;;;;5.43;2.90;;;14.20;89.80;;;;;;5071471;28;20539;-49
2021/05/30 05:58:24;;;;;;;6.20;3.47;;;14.50;90.20;;;;;;5071200;28;20428;-48
2021/05/30 06:00:51;;;;;;;3.80;2.57;;;14.70;89.90;;;;;;5071391;28;20677;-48
2021/05/30 06:03:17;;;;;;;3.87;3.03;;;14.90;89.70;;;;;;5071519;28;20505;-49
2021/05/30 06:05:43;;;;;;;3.70;2.87;;;14.80;88.60;;;;;;5071256;28;20532;-49
2021/05/30 06:08:09;;;;;;;5.20;3.50;;;14.90;88.60;;;;;;5070916;28;20426;-49
2021/05/30 06:10:35;;;;;;;4.07;2.40;;;15.00;87.40;;;;;;5071238;28;20554;-48
2021/05/30 06:13:08;;;;;;;5.33;3.63;;;14.90;88.10;;;;;;5071367;28;20797;-48
2021/05/30 06:15:36;;;;;;;4.20;3.20;;;15.00;88.10;;;;;;5071145;28;20434;-49
2021/05/30 06:18:05;;;;;;;4.80;2.50;;;15.40;88.00;;;;;;5070812;28;20453;-49
2021/05/30 06:20:32;;;;;;;4.70;2.90;;;15.50;85.40;;;;;;5070742;28;20958;-49
2021/05/30 06:22:58;;;;;;;3.33;2.47;;;15.30;86.10;;;;;;5069068;28;20544;-49
2021/05/30 06:25:26;;;;;;;4.73;2.50;;;15.20;84.60;;;;;;5070114;28;20926;-48
2021/05/30 06:27:55;;;;;;;4.40;2.50;;;14.80;82.00;;;;;;5070868;28;20453;-49
2021/05/30 06:30:22;;;;;;;5.33;2.57;;;15.40;82.60;;;;;;5070663;28;20438;-49
2021/05/30 06:32:49;;;;;;;5.57;3.00;;;15.50;82.10;;;;;;5069409;28;20445;-49
2021/05/30 06:35:15;;;;;;;3.50;2.87;;;15.60;81.70;;;;;;5070670;28;20525;-49
2021/05/30 06:37:41;;;;;;;2.60;1.80;;;15.60;81.20;;;;;;5070601;28;20540;-49
2021/05/30 06:40:08;;;;;;;4.10;2.40;;;15.50;77.30;;;;;;5070108;28;20449;-49
2021/05/30 06:42:34;;;;;;;3.80;1.97;;;15.50;77.30;;;;;;5070397;28;20522;-49
2021/05/30 06:45:01;;;;;;;5.47;2.90;;;15.80;77.70;;;;;;5070566;28;20429;-49
2021/05/30 06:47:27;;;;;;;4.57;2.60;;;15.50;76.70;;;;;;5070336;28;20434;-48
2021/05/30 06:49:54;;;;;;;5.27;2.50;;;15.60;77.20;;;;;;5070038;28;20421;-49
2021/05/30 06:52:20;;;;;;;2.60;2.40;;;15.40;75.80;;;;;;5070355;28;20463;-49
2021/05/30 06:54:46;;;;;;;4.13;2.43;;;15.60;77.30;;;;;;5070705;28;20440;-49
2021/05/30 06:57:13;;;;;;;3.83;2.30;;;15.60;76.70;;;;;;5070532;28;20438;-49
2021/05/30 06:59:39;;;;;;;4.63;2.33;;;15.70;76.10;;;;;;5070335;28;20430;-49
2021/05/30 07:02:06;;;;;;;3.50;2.70;;;15.90;74.80;;;;;;5070194;28;20496;-49
2021/05/30 07:04:32;;;;;;;3.50;2.33;;;15.80;73.30;;;;;;5070127;28;20494;-49
2021/05/30 07:06:59;;;;;;;4.30;2.33;;;15.50;71.80;;;;;;5070378;28;20431;-49
2021/05/30 07:09:25;;;;;;;4.90;2.50;;;15.50;71.80;;;;;;5069895;28;20536;-49
2021/05/30 07:11:51;;;;;;;3.53;2.67;;;15.80;71.70;;;;;;5070294;28;20442;-49
2021/05/30 07:14:17;;;;;;;5.33;2.70;;;15.90;71.20;;;;;;5070341;28;20425;-49
2021/05/30 07:16:43;;;;;;;8.60;3.00;;;15.60;70.70;;;;;;5070190;28;20541;-49
2021/05/30 07:19:09;;;;;;;4.87;2.67;;;15.60;70.60;;;;;;5069912;28;20857;-49
2021/05/30 07:21:36;;;;;;;5.63;3.00;;;16.00;71.30;;;;;;5069912;28;20496;-49
2021/05/30 07:24:03;;;;;;;4.30;2.90;;;15.90;70.50;;;;;;5070236;28;20879;-49
2021/05/30 07:26:30;;;;;;;3.33;2.10;;;15.70;70.20;;;;;;5069874;28;20438;-48
2021/05/30 07:28:56;;;;;;;8.80;2.77;;;16.10;71.10;;;;;;5070043;28;20455;-48
2021/05/30 07:31:22;;;;;;;2.50;1.90;;;15.80;70.90;;;;;;5069883;28;20458;-49
2021/05/30 07:33:49;;;;;;;3.00;2.10;;;15.90;70.80;;;;;;5070272;28;20426;-49
2021/05/30 07:36:15;;;;;;;3.70;2.17;;;15.80;69.90;;;;;;5069418;28;20488;-49
2021/05/30 07:38:41;;;;;;;3.70;2.27;;;15.90;70.40;;;;;;5069423;28;20442;-49
2021/05/30 07:41:08;;;;;;;4.17;2.60;;;16.00;69.50;;;;;;5069519;28;21034;-49
2021/05/30 07:43:35;;;;;;;4.67;2.37;;;16.10;69.70;;;;;;5069701;28;20463;-48
2021/05/30 07:46:01;;;;;;;2.57;2.20;;;15.80;69.80;;;;;;5069634;28;20911;-49
2021/05/30 07:48:27;;;;;;;3.67;2.67;;;15.90;69.40;;;;;;5069492;28;20461;-49
2021/05/30 07:50:53;;;;;;;3.30;2.50;;;16.30;70.60;;;;;;5069775;28;20506;-49
2021/05/30 07:53:20;;;;;;;4.03;2.60;;;15.60;70.80;;;;;;5070389;28;20430;-48
2021/05/30 07:55:46;;;;;;;3.93;2.40;;;15.90;70.00;;;;;;5069482;28;20430;-48
2021/05/30 07:58:13;;;;;;;3.60;2.53;;;16.20;70.20;;;;;;5069126;28;20422;-48
2021/05/30 08:00:40;;;;;;;4.03;2.73;;;16.40;70.70;;;;;;5069133;28;20485;-48
2021/05/30 08:03:07;;;;;;;2.73;2.27;;;15.80;69.80;;;;;;5067861;28;20440;-50
2021/05/30 08:05:33;;;;;;;3.53;2.50;;;16.20;69.70;;;;;;5069342;28;20976;-48
2021/05/30 08:07:59;;;;;;;4.73;2.40;;;16.10;69.70;;;;;;5069224;28;20432;-49
2021/05/30 08:10:26;;;;;;;3.83;2.63;;;15.50;68.80;;;;;;5069456;28;20984;-48
2021/05/30 08:12:53;;;;;;;3.77;2.30;;;15.90;68.90;;;;;;5069360;28;20437;-48
2021/05/30 08:15:21;;;;;;;4.10;2.80;;;16.10;68.50;;;;;;5069112;28;20427;-48
2021/05/30 08:17:47;;;;;;;6.10;2.37;;;16.30;69.10;;;;;;5069167;28;20437;-49
2021/05/30 08:20:14;;;;;;;5.77;2.70;;;16.20;69.70;;;;;;5069073;28;20440;-48
2021/05/30 08:22:41;;;;;;;3.90;2.53;;;16.30;70.20;;;;;;5069060;28;20511;-48
2021/05/30 08:25:08;;;;;;;3.30;2.23;;;16.20;67.10;;;;;;5069370;28;20794;-48
2021/05/30 08:27:35;;;;;;;2.87;2.57;;;16.20;67.30;;;;;;5069325;28;20481;-49
2021/05/30 08:30:01;;;;;;;6.07;2.33;;;16.50;67.20;;;;;;5068710;28;20477;-48
2021/05/30 08:32:28;;;;;;;3.27;1.87;;;16.30;65.50;;;;;;5069267;28;20450;-48
2021/05/30 08:34:54;;;;;;;3.20;2.50;;;16.30;63.60;;;;;;5069258;28;20550;-48
2021/05/30 08:37:21;;;;;;;3.60;2.13;;;16.40;63.20;;;;;;5069397;28;20483;-48
2021/05/30 08:39:48;;;;;;;3.73;2.03;;;16.40;62.60;;;;;;5068424;28;20547;-48
2021/05/30 08:42:19;;;;;;;3.63;2.00;;;16.50;60.50;;;;;;5068643;28;20474;-48
2021/05/30 08:44:46;;;;;;;3.00;2.17;;;16.60;59.70;;;;;;5069026;28;20532;-48
2021/05/30 08:47:12;;;;;;;2.80;2.17;;;16.70;59.40;;;;;;5069468;28;20798;-48
2021/05/30 08:49:39;;;;;;;3.10;1.80;;;16.00;58.70;;;;;;5072221;28;20787;-48
2021/05/30 08:52:07;;;;;;;3.80;2.50;;;16.80;59.60;;;;;;5072598;28;20518;-48
2021/05/30 08:54:33;;;;;;;4.03;2.07;;;16.50;59.00;;;;;;5072729;28;20432;-48
2021/05/30 08:56:59;;;;;;;3.60;1.80;;;16.50;59.30;;;;;;5072156;28;20969;-48
2021/05/30 08:59:29;;;;;;;3.77;2.10;;;16.60;60.00;;;;;;5072063;28;20434;-48
2021/05/30 09:01:57;;;;;;;5.03;2.70;;;16.50;59.40;;;;;;5072569;28;20529;-48
2021/05/30 09:04:31;;;;;;;3.97;1.80;;;16.70;60.00;;;;;;5072245;28;20444;-48
2021/05/30 09:06:58;;;;;;;5.63;2.20;;;16.60;59.70;;;;;;5072524;28;20429;-48
2021/05/30 09:09:24;;;;;;;3.57;2.40;;;16.70;59.50;;;;;;5072288;28;20871;-47
2021/05/30 09:11:52;;;;;;;7.17;2.23;;;16.70;59.50;;;;;;5072386;28;20456;-48
2021/05/30 09:14:23;;;;;;;9.23;2.40;;;16.90;59.50;;;;;;5072430;28;20949;-48
2021/05/30 09:16:56;;;;;;;3.80;2.20;;;16.70;59.80;;;;;;5070909;28;20833;-49
2021/05/30 09:19:44;;;;;;;6.10;2.57;;;16.70;59.40;;;;;;5071928;28;20525;-48
2021/05/30 09:22:30;;;;;;;5.10;2.30;;;16.80;59.90;;;;;;5070448;28;20569;-49
2021/05/30 09:25:15;;;;;;;2.60;1.90;;;16.70;58.90;;;;;;5070250;28;20536;-50
2021/05/30 09:27:45;;;;;;;3.57;1.60;;;16.70;58.50;;;;;;5072132;28;20443;-48
2021/05/30 09:30:15;;;;;;;2.80;2.37;;;16.90;58.80;;;;;;5071501;28;20425;-49
2021/05/30 09:33:03;;;;;;;2.40;2.20;;;16.90;58.70;;;;;;5071356;28;20819;-49
2021/05/30 09:35:43;;;;;;;4.07;2.07;;;17.00;58.60;;;;;;5071807;28;20457;-49
2021/05/30 09:38:13;;;;;;;5.20;2.13;;;17.00;59.20;;;;;;5070184;28;20912;-49
2021/05/30 09:40:40;;;;;;;4.50;2.50;;;17.10;59.40;;;;;;5071321;28;20791;-49
2021/05/30 09:43:08;;;;;;;3.87;2.20;;;16.90;59.40;;;;;;5071617;28;20442;-49
2021/05/30 09:45:35;;;;;;;3.13;2.33;;;17.10;59.70;;;;;;5069996;28;20457;-49
2021/05/30 09:48:04;;;;;;;4.13;2.30;;;17.00;59.10;;;;;;5070777;28;20438;-49
2021/05/30 09:50:32;;;;;;;8.33;2.93;;;17.10;58.20;;;;;;5071404;28;20453;-49
2021/05/30 09:53:01;;;;;;;4.37;2.30;;;17.40;58.10;;;;;;5071543;28;20449;-49
2021/05/30 09:55:31;;;;;;;3.13;2.17;;;17.20;57.90;;;;;;5071240;28;20495;-49
2021/05/30 09:58:11;;;;;;;4.07;2.10;;;17.10;57.80;;;;;;5071110;28;20953;-49
2021/05/30 10:00:37;;;;;;;4.20;2.20;;;17.10;57.80;;;;;;5071128;28;20457;-49
2021/05/30 10:03:04;;;;;;;5.53;2.70;;;17.40;57.90;;;;;;5071015;28;20831;-49
2021/05/30 10:05:31;;;;;;;2.80;2.10;;;17.10;58.20;;;;;;5071039;28;20503;-49
2021/05/30 10:07:59;;;;;;;5.70;2.23;;;17.00;58.60;;;;;;5070724;28;20449;-49
2021/05/30 10:10:25;;;;;;;3.53;2.30;;;17.50;58.80;;;;;;5071108;28;20923;-49
2021/05/30 10:12:52;;;;;;;4.20;2.20;;;17.40;58.10;;;;;;5069823;28;20450;-49
2021/05/30 10:15:19;;;;;;;5.17;2.47;;;17.20;58.10;;;;;;5070891;28;20458;-49
2021/05/30 10:17:47;;;;;;;2.70;2.03;;;17.20;58.20;;;;;;5070926;28;20529;-49
2021/05/30 10:20:18;;;;;;;5.00;2.37;;;17.70;58.70;;;;;;5070250;28;20606;-49
2021/05/30 10:22:48;;;;;;;5.47;2.20;;;17.70;58.30;;;;;;5070640;28;20481;-49
2021/05/30 10:25:25;;;;;;;3.13;2.53;;;17.50;58.20;;;;;;5070689;28;20440;-49
2021/05/30 10:30:45;;;;;;;3.27;2.23;;;17.40;57.90;;;;;;5086827;28;20539;-51
2021/05/30 10:33:14;;;;;;;4.83;2.87;;;17.50;58.00;;;;;;5087067;28;20954;-50
2021/05/30 10:35:41;;;;;;;4.63;2.43;;;17.80;58.00;;;;;;5086930;28;20513;-48
2021/05/30 10:38:07;;;;;;;2.50;2.30;;;17.50;57.70;;;;;;5085914;28;20755;-48
2021/05/30 10:40:36;;;;;;;5.37;2.90;;;17.70;58.20;;;;;;5086454;28;20947;-48
2021/05/30 10:43:20;;;;;;;7.37;2.93;;;17.70;58.00;;;;;;5087401;28;20575;-48
2021/05/30 10:46:08;;;;;;;5.83;3.20;;;17.60;58.00;;;;;;5086657;28;20445;-49
2021/05/30 10:48:36;;;;;;;4.63;2.20;;;17.70;58.00;;;;;;5085672;28;20518;-49
2021/05/30 10:51:13;;;;;;;4.60;2.30;;;17.40;57.80;;;;;;5087131;28;20453;-49
2021/05/30 10:53:41;;;;;;;5.33;2.50;;;17.80;57.90;;;;;;5086941;28;20442;-49
2021/05/30 10:56:23;;;;;;;5.00;3.10;;;17.60;58.10;;;;;;5086557;28;20440;-49
2021/05/30 10:59:26;;;;;;;5.70;2.70;;;17.90;58.20;;;;;;5086807;28;20518;-49
2021/05/30 11:01:54;;;;;;;3.47;2.70;;;17.90;58.50;;;;;;5085364;28;20523;-49
2021/05/30 11:04:35;;;;;;;4.30;2.47;;;17.70;58.20;;;;;;5086534;28;20484;-49
2021/05/30 11:07:20;;;;;;;4.47;2.40;;;17.90;58.40;;;;;;5086489;28;20439;-50
2021/05/30 11:10:11;;;;;;;6.30;2.93;;;18.00;58.40;;;;;;5086052;28;20463;-48
2021/05/30 11:12:59;;;;;;;9.13;3.00;;;18.10;58.40;;;;;;5086424;28;20804;-49
2021/05/30 11:15:30;;;;;;;4.10;2.27;;;18.30;59.00;;;;;;5081391;28;20516;-48
2021/05/30 11:17:58;;;;;;;4.40;2.60;;;18.10;58.70;;;;;;5084731;28;20443;-49
2021/05/30 11:20:28;;;;;;;4.43;3.00;;;17.90;58.40;;;;;;5085316;28;20928;-49
2021/05/30 11:22:57;;;;;;;2.83;2.20;;;18.10;58.20;;;;;;5085570;28;20475;-49
2021/05/30 11:25:33;;;;;;;5.03;2.50;;;17.80;58.30;;;;;;5086058;28;20449;-49
2021/05/30 11:28:02;;;;;;;4.57;2.50;;;18.40;58.20;;;;;;5084207;28;20474;-49
2021/05/30 11:30:39;;;;;;;3.90;2.40;;;18.10;57.70;;;;;;5085247;28;21023;-49
2021/05/30 11:33:08;;;;;;;4.57;2.77;;;18.20;57.50;;;;;;5085909;28;20803;-49
2021/05/30 11:35:34;;;;;;;5.03;2.37;;;18.30;57.60;;;;;;5083922;28;20883;-48
2021/05/30 11:38:01;;;;;;;3.53;2.20;;;18.40;57.80;;;;;;5085758;28;20526;-49
2021/05/30 11:40:28;;;;;;;3.20;2.23;;;18.00;57.60;;;;;;5080916;28;20451;-49
2021/05/30 11:42:54;;;;;;;4.10;2.60;;;18.50;57.50;;;;;;5072056;28;20440;-47
2021/05/30 11:45:31;;;;;;;6.17;2.60;;;18.40;57.40;;;;;;5072203;28;20436;-49
2021/05/30 11:48:06;;;;;;;4.40;2.60;;;18.30;57.40;;;;;;5071940;28;20421;-49
2021/05/30 11:50:34;;;;;;;3.50;2.30;;;18.60;57.40;;;;;;5071531;28;20483;-50
2021/05/30 11:53:06;;;;;;;4.10;2.50;;;18.20;57.00;;;;;;5071207;28;20452;-50
2021/05/30 11:55:33;;;;;;;6.90;2.50;;;18.50;57.20;;;;;;5071724;28;20439;-50
2021/05/30 11:58:08;;;;;;;5.07;2.60;;;18.60;57.00;;;;;;5071043;28;20436;-50
2021/05/30 12:00:35;;;;;;;5.07;2.60;;;18.70;56.50;;;;;;5071454;28;20614;-50
2021/05/30 12:03:09;;;;;;;4.30;2.00;;;18.80;55.50;;;;;;5071180;28;20428;-50
2021/05/30 12:05:36;;;;;;;3.80;2.57;;;18.70;55.80;;;;;;5071219;28;20442;-50
2021/05/30 12:08:18;;;;;;;4.97;2.40;;;19.00;56.30;;;;;;5071161;28;20431;-50
2021/05/30 12:10:58;;;;;;;6.50;2.50;;;18.90;56.20;;;;;;5071545;28;20487;-49
2021/05/30 12:13:29;;;;;;;4.53;2.67;;;18.70;56.60;;;;;;5071309;28;20514;-55
2021/05/30 12:15:56;;;;;;;4.63;2.50;;;18.80;56.70;;;;;;5071367;28;20475;-49
2021/05/30 12:18:23;;;;;;;3.13;2.23;;;18.70;57.00;;;;;;5069488;28;20547;-49
2021/05/30 12:20:50;;;;;;;3.90;2.90;;;19.10;56.10;;;;;;5071181;28;20453;-49
2021/05/30 12:23:19;;;;;;;4.03;2.40;;;19.10;55.50;;;;;;5071249;28;20524;-49
2021/05/30 12:25:53;;;;;;;4.13;2.30;;;18.90;55.60;;;;;;5071359;28;20539;-49
2021/05/30 12:28:21;;;;;;;2.23;1.77;;;19.10;55.60;;;;;;5070654;28;20440;-49
2021/05/30 12:30:49;;;;;;;4.03;2.80;;;18.90;54.60;;;;;;5070667;28;20591;-49
2021/05/30 12:33:19;;;;;;;5.97;4.60;;;18.60;53.70;;;;;;5070611;28;20433;-49
2021/05/30 12:35:48;;;;;;;4.40;2.67;;;19.40;54.80;;;;;;5070922;28;20444;-49
2021/05/30 12:38:18;;;;;;;3.27;2.10;;;19.00;54.80;;;;;;5070011;28;20440;-48
2021/05/30 12:40:45;;;;;;;4.27;2.57;;;19.10;55.50;;;;;;5070373;28;20498;-48
2021/05/30 12:43:11;;;;;;;6.50;3.30;;;19.20;57.00;;;;;;5070741;28;20433;-49
2021/05/30 12:46:01;;;;;;;4.80;2.20;;;19.50;56.20;;;;;;5071026;28;20433;-49
2021/05/30 12:48:44;;;;;;;3.17;2.40;;;19.20;55.30;;;;;;5070006;28;20448;-49
2021/05/30 12:51:17;;;;;;;4.63;2.33;;;19.50;55.80;;;;;;5069149;28;20888;-49
2021/05/30 12:53:46;;;;;;;2.57;2.27;;;19.20;56.10;;;;;;5069794;28;20585;-49
2021/05/30 12:56:30;;;;;;;4.20;2.70;;;19.30;55.70;;;;;;5070791;28;20472;-49